Airfield :
LOGIN :

Register | Disclaimer

   EN    FR    IT 

 










Legend :    VFR   Marginal VFR   IFR   Intensive IFR   Very Intensive IFR
Visi :
Ceiling :
>= 8 km
>= 3000ft
5 to 8 km
1000 to 3000 ft
1500m to 5 km
500 to 1000 ft
800 to 1500m
200 to 500 ft
< 800m
< 200 ft
Symbols :   Thunderstorms  Fog  Heavy snow  Heavy precipitations  Wind > 20 kt
SIGMETs :     Misc.  Thunderstorms  Icing  Turbulence  Mountain Waves  Volcanic Ashes






- Airport Elevation : 1959 ft
- IATA code : HOQ


EDQM - Hof Plauen

CURRENT METAR :
  • 171250Z 25008KT 220V280 9999 FEW016 SCT040 05/03 Q1007

EXPIRED METARs :
  • 171220Z 26007KT 220V290 9999 FEW010 SCT022 BKN057 04/02 Q1007
  • 171150Z 32008KT 280V350 9999 FEW015 SCT029 BKN042 04/01 Q1007
  • 171120Z 02008KT 320V060 9999 SCT020 SCT029 BKN061 05/01 Q1007 RESHGS
  • 171050Z 13003KT 080V180 9999 SHGS SCT015 BKN026 BKN053CB 05/M00 Q1007
  • 171020Z VRB02KT 9999 SCT020 BKN048 05/M00 Q1007
  • 170950Z 34004KT 290V040 9999 SCT015 BKN021 BKN035 05/01 Q1007
  • 170920Z 34004KT 300V020 9999 SCT016 BKN022 BKN030 04/02 Q1007
  • 170850Z VRB02KT 9999 SCT016 BKN022 BKN032 05/M00 Q1007
  • 170820Z 32003KT 250V020 9999 SCT017 BKN023 OVC030 04/01 Q1007

TAF TAF EDQM
Valid from the 17 at 12:00 until the 17 at 21:00 UTC


171100Z 1712/1721 33004KT 9999 SCT015 BKN025
TEMPO 1712/1721 SHRAGS BKN012 BKN025CB
PROB30
TEMPO 1712/1716 3000 TSRAGS BKN008 BKN020CB



MET'MAP, your aeronautical weather chart ! - Copyright ORBIFLY December 2007 - Disclaimer

ORBIFLY MET'MAP TEAM :

Programming & Development : Alexandra Zaïnal
Original concept : Baudouin d'Aumeries
Technical & hardware support : Manuel Goepfert
Assistance : Marc-Olivier Méhu




SOURCES & CREDITS :

   NOAA